createdAt,value
2023-05-21T00:01:05.717Z,62.02
2023-05-21T00:03:45.375Z,62.65
2023-05-21T00:06:16.745Z,63.32
2023-05-21T00:08:48.178Z,63.17
2023-05-21T00:11:17.705Z,63.05
2023-05-21T00:13:47.035Z,62.39
2023-05-21T00:16:17.189Z,62.54
2023-05-21T00:18:46.993Z,62.73
2023-05-21T00:21:17.133Z,63.42
2023-05-21T00:23:47.798Z,62.72
2023-05-21T00:26:18.736Z,62.92
2023-05-21T00:28:50.177Z,62.59
2023-05-21T00:31:23.427Z,63.38
2023-05-21T00:33:54.218Z,63.11
2023-05-21T00:36:23.636Z,63.54
2023-05-21T00:38:55.488Z,64.02
2023-05-21T00:41:26.009Z,64.17
2023-05-21T00:43:56.723Z,63.52
2023-05-21T00:46:29.821Z,64.35
2023-05-21T00:49:02.301Z,64.09
2023-05-21T00:51:32.346Z,64.49
2023-05-21T00:54:03.052Z,64.52
2023-05-21T00:56:34.406Z,64.11
2023-05-21T00:59:05.151Z,64.16
2023-05-21T01:01:36.422Z,64.13
2023-05-21T01:04:06.038Z,64.67
2023-05-21T01:06:34.997Z,64.22
2023-05-21T01:09:06.832Z,64.90
2023-05-21T01:11:41.403Z,65.00
2023-05-21T01:14:15.391Z,64.63
2023-05-21T01:16:48.423Z,65.41
2023-05-21T01:19:24.124Z,65.36
2023-05-21T01:22:00.610Z,64.66
2023-05-21T01:24:29.983Z,65.46
2023-05-21T01:27:00.815Z,65.43
2023-05-21T01:29:30.196Z,65.01
2023-05-21T01:32:09.694Z,64.57
2023-05-21T01:34:46.540Z,65.62
2023-05-21T01:37:23.426Z,65.77
2023-05-21T01:39:57.584Z,65.51
2023-05-21T01:42:26.408Z,65.04
2023-05-21T01:44:58.060Z,66.01
2023-05-21T01:47:29.625Z,65.52
2023-05-21T01:50:01.091Z,65.77
2023-05-21T01:52:30.087Z,65.28
2023-05-21T01:55:00.351Z,66.12
2023-05-21T01:57:31.697Z,65.41
2023-05-21T02:00:03.823Z,65.76
2023-05-21T02:02:53.506Z,66.22
2023-05-21T02:05:22.575Z,66.02
2023-05-21T02:07:52.288Z,66.05
2023-05-21T02:10:21.636Z,66.08
2023-05-21T02:12:50.803Z,65.51
2023-05-21T02:15:24.442Z,65.16
2023-05-21T02:17:53.510Z,66.06
2023-05-21T02:20:23.759Z,66.02
2023-05-21T02:22:52.912Z,65.78
2023-05-21T02:25:22.029Z,65.97
2023-05-21T02:27:53.440Z,65.15
2023-05-21T02:30:22.455Z,64.95
2023-05-21T02:32:51.680Z,65.87
2023-05-21T02:35:20.572Z,65.09
2023-05-21T02:37:51.153Z,65.66
2023-05-21T02:40:20.101Z,64.89
2023-05-21T02:42:50.105Z,64.97
2023-05-21T02:45:23.550Z,65.30
2023-05-21T02:47:54.301Z,65.14
2023-05-21T02:50:24.149Z,65.56
2023-05-21T02:52:59.095Z,64.56
2023-05-21T02:55:28.182Z,64.97
2023-05-21T02:58:05.492Z,65.35
2023-05-21T03:00:34.532Z,65.48
2023-05-21T03:03:05.644Z,65.09
2023-05-21T03:05:35.032Z,65.17
2023-05-21T03:08:06.786Z,65.25
2023-05-21T03:10:36.305Z,65.66
2023-05-21T03:13:07.476Z,65.23
2023-05-21T03:15:39.673Z,65.58
2023-05-21T03:18:12.408Z,65.27
2023-05-21T03:20:43.545Z,65.97
2023-05-21T03:23:16.887Z,65.62
2023-05-21T03:25:45.783Z,65.10
2023-05-21T03:28:18.202Z,65.44
2023-05-21T03:30:52.856Z,65.85
2023-05-21T03:33:31.529Z,65.38
2023-05-21T03:36:01.258Z,65.34
2023-05-21T03:38:33.747Z,65.79
2023-05-21T03:41:03.487Z,65.84
2023-05-21T03:43:32.679Z,65.52
2023-05-21T03:46:04.280Z,64.93
2023-05-21T03:48:58.317Z,64.77
2023-05-21T03:51:29.524Z,64.87
2023-05-21T03:54:00.932Z,65.38
2023-05-21T03:56:30.202Z,64.56
2023-05-21T03:58:59.351Z,65.06
2023-05-21T04:01:28.526Z,64.67
2023-05-21T04:04:00.114Z,64.60
2023-05-21T04:06:32.700Z,64.08
2023-05-21T04:09:02.321Z,65.12
2023-05-21T04:11:31.832Z,64.16
2023-05-21T04:14:02.575Z,63.39
2023-05-21T04:16:36.266Z,63.04
2023-05-21T04:19:07.305Z,62.93
2023-05-21T04:21:36.314Z,62.63
2023-05-21T04:24:07.187Z,62.10
2023-05-21T04:26:50.332Z,61.79
2023-05-21T04:29:20.948Z,61.52
2023-05-21T04:31:51.506Z,61.32
2023-05-21T04:34:25.864Z,60.36
2023-05-21T04:36:54.965Z,60.16
2023-05-21T04:39:28.165Z,59.77
2023-05-21T04:41:57.354Z,60.38
2023-05-21T04:44:28.642Z,59.89
2023-05-21T04:46:58.317Z,58.25
2023-05-21T04:49:27.811Z,56.84
2023-05-21T04:51:58.845Z,55.85
2023-05-21T04:54:32.562Z,55.20
2023-05-21T04:57:02.912Z,53.41
2023-05-21T04:59:32.186Z,53.17
2023-05-21T05:02:01.293Z,52.15
2023-05-21T05:04:31.252Z,50.78
2023-05-21T05:07:01.475Z,48.31
2023-05-21T05:09:31.199Z,47.31
2023-05-21T05:12:01.728Z,44.88
2023-05-21T05:14:32.725Z,43.84
2023-05-21T05:17:07.587Z,41.78
2023-05-21T05:19:37.301Z,42.42
2023-05-21T05:22:06.888Z,41.07
2023-05-21T05:24:36.588Z,41.06
2023-05-21T05:27:06.150Z,40.98
2023-05-21T05:29:39.349Z,40.43
2023-05-21T05:32:09.233Z,40.34
2023-05-21T05:34:40.340Z,38.81
2023-05-21T05:37:09.490Z,37.80
2023-05-21T05:39:38.529Z,37.29
2023-05-21T05:42:07.557Z,36.47
2023-05-21T05:44:43.128Z,35.93
2023-05-21T05:47:12.004Z,34.79
2023-05-21T05:49:42.636Z,34.09
2023-05-21T05:52:12.246Z,33.88
2023-05-21T05:54:41.327Z,33.09
2023-05-21T05:57:17.657Z,32.75
2023-05-21T05:59:50.784Z,32.38
2023-05-21T06:02:21.967Z,31.39
2023-05-21T06:04:55.855Z,31.28
2023-05-21T06:07:25.423Z,31.08
2023-05-21T06:09:58.958Z,30.28
2023-05-21T06:12:28.928Z,29.78
2023-05-21T06:14:58.224Z,29.69
2023-05-21T06:17:27.636Z,29.91
2023-05-21T06:19:59.548Z,30.78
2023-05-21T06:22:29.256Z,31.46
2023-05-21T06:25:06.521Z,32.07
2023-05-21T06:27:38.305Z,32.69
2023-05-21T06:30:11.570Z,33.29
2023-05-21T06:32:43.488Z,33.65
2023-05-21T06:35:16.896Z,34.04
2023-05-21T06:37:47.265Z,34.71
2023-05-21T06:40:22.207Z,34.94
2023-05-21T06:42:53.412Z,35.53
2023-05-21T06:45:23.065Z,36.25
2023-05-21T06:47:58.001Z,36.35
2023-05-21T06:50:27.802Z,36.92
2023-05-21T06:52:58.300Z,37.60
2023-05-21T06:55:27.337Z,37.24
2023-05-21T06:58:22.729Z,37.29
2023-05-21T07:00:52.023Z,37.87
2023-05-21T07:03:20.989Z,38.14
2023-05-21T07:05:51.176Z,38.25
2023-05-21T07:08:24.274Z,38.51
2023-05-21T07:10:53.512Z,38.47
2023-05-21T07:13:23.761Z,38.12
2023-05-21T07:15:56.302Z,38.47
2023-05-21T07:18:27.362Z,39.25
2023-05-21T07:20:57.130Z,39.16
2023-05-21T07:23:27.222Z,39.46
2023-05-21T07:25:56.373Z,39.02
2023-05-21T07:28:28.228Z,39.31
2023-05-21T07:30:57.428Z,40.01
2023-05-21T07:33:34.286Z,40.10
2023-05-21T07:36:05.445Z,40.00
2023-05-21T07:38:34.760Z,40.18
2023-05-21T07:41:04.202Z,40.31
2023-05-21T07:43:33.432Z,40.45
2023-05-21T07:46:02.804Z,40.29
2023-05-21T07:48:33.593Z,40.38
2023-05-21T07:51:05.458Z,40.50
2023-05-21T07:53:34.592Z,40.76
2023-05-21T07:56:08.460Z,40.50
2023-05-21T07:58:37.589Z,40.29
2023-05-21T08:01:09.860Z,40.47
2023-05-21T08:03:42.699Z,40.50
2023-05-21T08:06:12.976Z,40.23
2023-05-21T08:08:43.918Z,39.73
2023-05-21T08:11:13.209Z,40.07
2023-05-21T08:13:43.569Z,40.09
2023-05-21T08:16:13.371Z,40.03
2023-05-21T08:18:50.411Z,39.91
2023-05-21T08:21:23.282Z,39.59
2023-05-21T08:23:54.028Z,39.61
2023-05-21T08:26:26.189Z,39.65
2023-05-21T08:28:56.171Z,39.10
2023-05-21T08:31:25.805Z,39.37
2023-05-21T08:33:56.105Z,39.12
2023-05-21T08:36:33.489Z,39.29
2023-05-21T08:39:08.408Z,39.17
2023-05-21T08:41:42.301Z,38.81
2023-05-21T08:44:12.712Z,38.90
2023-05-21T08:46:45.527Z,39.13
2023-05-21T08:49:17.015Z,38.94
2023-05-21T08:51:46.961Z,38.56
2023-05-21T08:54:17.220Z,38.08
2023-05-21T08:56:49.079Z,37.99
2023-05-21T08:59:21.151Z,37.66
2023-05-21T09:01:51.957Z,37.20
2023-05-21T09:04:29.421Z,36.84
2023-05-21T09:07:02.370Z,36.79
2023-05-21T09:10:12.614Z,36.43
2023-05-21T09:12:44.600Z,36.14
2023-05-21T09:15:23.372Z,35.87
2023-05-21T09:17:53.338Z,35.74
2023-05-21T09:20:47.302Z,34.92
2023-05-21T09:23:19.036Z,35.29
2023-05-21T09:25:49.109Z,34.84
2023-05-21T09:28:29.556Z,34.76
2023-05-21T09:31:05.171Z,34.65
2023-05-21T09:33:35.358Z,34.01
2023-05-21T09:36:08.692Z,34.26
2023-05-21T09:38:38.395Z,34.50
2023-05-21T09:41:07.656Z,34.32
2023-05-21T09:43:37.593Z,34.00
2023-05-21T09:46:07.018Z,33.46
2023-05-21T09:48:37.988Z,33.32
2023-05-21T09:51:11.357Z,33.35
2023-05-21T09:53:55.216Z,33.48
2023-05-21T09:56:26.683Z,32.74
2023-05-21T09:58:57.400Z,32.88
2023-05-21T10:01:29.411Z,32.49
2023-05-21T10:04:02.481Z,32.24
2023-05-21T10:06:33.290Z,32.07
2023-05-21T10:09:07.572Z,32.47
2023-05-21T10:11:40.796Z,32.08
2023-05-21T10:14:22.717Z,31.85
2023-05-21T10:16:54.722Z,31.86
2023-05-21T10:19:32.973Z,31.47
2023-05-21T10:22:09.992Z,31.67
2023-05-21T10:24:42.240Z,31.74
2023-05-21T10:27:12.136Z,30.96
2023-05-21T10:29:44.406Z,30.77
2023-05-21T10:32:17.835Z,31.29
2023-05-21T10:34:53.354Z,31.25
2023-05-21T10:37:30.840Z,31.43
2023-05-21T10:40:17.931Z,31.28
2023-05-21T10:43:26.582Z,31.02
2023-05-21T10:46:20.746Z,30.59
2023-05-21T10:49:22.738Z,30.86
2023-05-21T10:52:06.444Z,30.24
2023-05-21T10:54:58.431Z,30.64
2023-05-21T10:57:58.083Z,29.76
2023-05-21T11:00:28.362Z,30.13
2023-05-21T11:02:59.349Z,30.04
2023-05-21T11:05:51.388Z,30.51
2023-05-21T11:08:23.014Z,30.42
2023-05-21T11:10:57.583Z,30.26
2023-05-21T11:13:33.306Z,30.20
2023-05-21T11:16:13.514Z,29.59
2023-05-21T11:19:05.136Z,29.33
2023-05-21T11:21:40.168Z,29.33
2023-05-21T11:24:25.068Z,29.02
2023-05-21T11:27:04.497Z,29.31
2023-05-21T11:29:40.426Z,29.24
2023-05-21T11:32:10.642Z,29.32
2023-05-21T11:34:45.109Z,29.07
2023-05-21T11:37:32.653Z,29.01
2023-05-21T11:40:20.960Z,28.84
2023-05-21T11:42:53.100Z,29.12
2023-05-21T11:45:28.061Z,29.34
2023-05-21T11:47:58.003Z,29.18
2023-05-21T11:50:32.594Z,28.82
2023-05-21T11:53:04.441Z,29.06
2023-05-21T11:55:56.746Z,29.10
2023-05-21T11:58:29.025Z,29.14
2023-05-21T12:01:02.822Z,29.28
2023-05-21T12:03:35.873Z,29.27
2023-05-21T12:06:07.968Z,29.16
2023-05-21T12:08:37.875Z,29.56
2023-05-21T12:11:07.176Z,29.44
2023-05-21T12:13:36.463Z,29.31
2023-05-21T12:16:10.401Z,29.14
2023-05-21T12:18:42.152Z,28.87
2023-05-21T12:21:19.553Z,28.85
2023-05-21T12:23:48.674Z,29.11
2023-05-21T12:26:22.836Z,28.79
2023-05-21T12:28:56.514Z,29.29
2023-05-21T12:31:27.076Z,29.25
2023-05-21T12:33:56.369Z,29.28
2023-05-21T12:36:33.795Z,29.17
2023-05-21T12:39:03.713Z,28.79
2023-05-21T12:41:35.806Z,29.27
2023-05-21T12:44:08.356Z,29.39
2023-05-21T12:46:38.800Z,29.55
2023-05-21T12:49:09.518Z,29.21
2023-05-21T12:51:42.200Z,29.08
2023-05-21T12:54:13.806Z,28.90
2023-05-21T12:56:50.678Z,28.96
2023-05-21T12:59:23.266Z,29.07
2023-05-21T13:01:56.101Z,29.08
2023-05-21T13:04:25.430Z,28.96
2023-05-21T13:06:59.996Z,29.07
2023-05-21T13:09:28.892Z,28.97
2023-05-21T13:11:59.136Z,29.29
2023-05-21T13:14:27.930Z,28.84
2023-05-21T13:16:58.736Z,28.76
2023-05-21T13:19:30.217Z,28.87
2023-05-21T13:22:03.035Z,28.85
2023-05-21T13:24:32.287Z,29.06
2023-05-21T13:27:07.272Z,28.90
2023-05-21T13:29:42.132Z,28.77
2023-05-21T13:32:11.392Z,28.97
2023-05-21T13:34:47.534Z,29.00
2023-05-21T13:37:21.250Z,28.84
2023-05-21T13:39:50.267Z,28.88
2023-05-21T13:42:20.480Z,29.26
2023-05-21T13:44:50.178Z,28.92
2023-05-21T13:47:20.507Z,28.69
2023-05-21T13:49:49.740Z,28.99
2023-05-21T13:52:24.489Z,29.09
2023-05-21T13:55:01.576Z,28.98
2023-05-21T13:57:34.025Z,29.08
2023-05-21T14:00:03.980Z,29.07
2023-05-21T14:02:39.147Z,29.45
2023-05-21T14:05:09.835Z,29.32
2023-05-21T14:07:40.095Z,29.61
2023-05-21T14:10:11.365Z,29.50
2023-05-21T14:12:40.546Z,29.94
2023-05-21T14:15:12.618Z,29.82
2023-05-21T14:17:41.897Z,29.59
2023-05-21T14:20:18.461Z,29.53
2023-05-21T14:22:47.877Z,29.78
2023-05-21T14:25:21.692Z,29.71
2023-05-21T14:27:50.670Z,30.04
2023-05-21T14:30:24.957Z,30.00
2023-05-21T14:32:57.818Z,30.00
2023-05-21T14:35:27.267Z,29.91
2023-05-21T14:37:56.949Z,30.28
2023-05-21T14:40:28.288Z,29.89
2023-05-21T14:42:59.797Z,29.84
2023-05-21T14:45:29.295Z,29.83
2023-05-21T14:47:58.588Z,29.83
2023-05-21T14:50:28.616Z,29.86
2023-05-21T14:52:58.726Z,29.69
2023-05-21T14:55:28.002Z,29.82
2023-05-21T14:57:57.174Z,30.13
2023-05-21T15:00:27.851Z,29.74
2023-05-21T15:02:57.617Z,30.24
2023-05-21T15:05:31.709Z,30.22
2023-05-21T15:08:01.041Z,30.29
2023-05-21T15:10:37.279Z,30.17
2023-05-21T15:13:07.476Z,30.65
2023-05-21T15:15:39.713Z,30.70
2023-05-21T15:18:11.876Z,30.72
2023-05-21T15:20:44.554Z,30.78
2023-05-21T15:23:17.400Z,30.88
2023-05-21T15:25:50.363Z,30.54
2023-05-21T15:28:22.396Z,30.65
2023-05-21T15:30:52.835Z,30.79
2023-05-21T15:33:22.164Z,30.46
2023-05-21T15:35:53.374Z,30.51
2023-05-21T15:38:22.287Z,30.77
2023-05-21T15:40:53.160Z,31.04
2023-05-21T15:43:22.900Z,30.91
2023-05-21T15:45:53.166Z,30.91
2023-05-21T15:48:22.600Z,31.22
2023-05-21T15:50:55.062Z,31.26
2023-05-21T15:53:24.969Z,31.35
2023-05-21T15:55:55.845Z,31.39
2023-05-21T15:58:25.302Z,31.72
2023-05-21T16:00:54.144Z,31.51
2023-05-21T16:03:26.304Z,31.02
2023-05-21T16:05:55.255Z,31.37
2023-05-21T16:08:24.169Z,31.22
2023-05-21T16:10:53.828Z,31.48
2023-05-21T16:13:23.195Z,31.15
2023-05-21T16:15:53.623Z,31.17
2023-05-21T16:18:23.683Z,31.63
2023-05-21T16:20:56.448Z,31.28
2023-05-21T16:23:25.689Z,31.40
2023-05-21T16:25:55.789Z,31.32
2023-05-21T16:28:27.267Z,31.19
2023-05-21T16:31:03.803Z,31.40
2023-05-21T16:33:32.924Z,31.30
2023-05-21T16:36:05.135Z,31.63
2023-05-21T16:38:37.833Z,31.52
2023-05-21T16:41:07.170Z,31.34
2023-05-21T16:43:39.298Z,31.57
2023-05-21T16:46:08.787Z,31.90
2023-05-21T16:48:39.381Z,31.66
2023-05-21T16:51:11.251Z,31.54
2023-05-21T16:53:41.996Z,31.38
2023-05-21T16:56:11.103Z,32.00
2023-05-21T16:58:50.111Z,32.07
2023-05-21T17:01:20.514Z,31.96
2023-05-21T17:03:52.808Z,32.03
2023-05-21T17:06:23.615Z,32.25
2023-05-21T17:08:53.326Z,32.29
2023-05-21T17:11:22.767Z,32.28
2023-05-21T17:13:51.842Z,31.98
2023-05-21T17:16:21.104Z,31.98
2023-05-21T17:18:51.780Z,32.50
2023-05-21T17:21:20.761Z,32.61
2023-05-21T17:23:51.649Z,32.38
2023-05-21T17:26:24.159Z,32.92
2023-05-21T17:28:56.560Z,32.51
2023-05-21T17:31:26.617Z,32.89
2023-05-21T17:33:56.165Z,32.91
2023-05-21T17:36:25.283Z,32.72
2023-05-21T17:38:56.430Z,33.11
2023-05-21T17:41:25.666Z,33.06
2023-05-21T17:43:54.791Z,33.44
2023-05-21T17:46:23.905Z,33.22
2023-05-21T17:48:53.008Z,33.39
2023-05-21T17:51:23.361Z,33.65
2023-05-21T17:53:54.809Z,33.76
2023-05-21T17:56:23.926Z,33.76
2023-05-21T17:58:55.336Z,34.00
2023-05-21T18:01:25.401Z,34.04
2023-05-21T18:03:55.083Z,34.64
2023-05-21T18:06:25.315Z,34.76
2023-05-21T18:08:59.634Z,34.85
2023-05-21T18:11:31.599Z,35.00
2023-05-21T18:14:00.804Z,35.59
2023-05-21T18:16:31.954Z,35.46
2023-05-21T18:19:05.343Z,35.52
2023-05-21T18:21:34.587Z,35.44
2023-05-21T18:24:03.868Z,36.11
2023-05-21T18:26:36.633Z,36.47
2023-05-21T18:29:05.712Z,36.55
2023-05-21T18:31:37.268Z,36.49
2023-05-21T18:34:08.156Z,37.11
2023-05-21T18:36:38.458Z,37.35
2023-05-21T18:39:09.325Z,37.50
2023-05-21T18:41:39.786Z,37.48
2023-05-21T18:44:11.962Z,37.95
2023-05-21T18:46:41.813Z,39.06
2023-05-21T18:49:10.881Z,38.30
2023-05-21T18:51:40.709Z,38.93
2023-05-21T18:54:09.775Z,39.20
2023-05-21T18:56:39.006Z,39.56
2023-05-21T18:59:08.571Z,39.60
2023-05-21T19:01:39.889Z,40.04
2023-05-21T19:04:09.044Z,40.65
2023-05-21T19:06:38.159Z,40.45
2023-05-21T19:09:07.255Z,40.72
2023-05-21T19:11:40.835Z,41.04
2023-05-21T19:14:11.467Z,41.35
2023-05-21T19:16:40.914Z,41.97
2023-05-21T19:19:10.285Z,41.58
2023-05-21T19:21:39.505Z,42.28
2023-05-21T19:24:12.850Z,42.79
2023-05-21T19:26:42.704Z,42.27
2023-05-21T19:29:11.891Z,42.57
2023-05-21T19:31:42.303Z,43.36
2023-05-21T19:34:11.388Z,43.40
2023-05-21T19:36:52.169Z,43.93
2023-05-21T19:39:25.351Z,43.51
2023-05-21T19:41:56.147Z,44.08
2023-05-21T19:44:25.894Z,43.70
2023-05-21T19:46:56.608Z,44.52
2023-05-21T19:49:30.515Z,44.11
2023-05-21T19:52:00.054Z,44.36
2023-05-21T19:54:35.381Z,45.23
2023-05-21T19:57:13.218Z,44.41
2023-05-21T19:59:42.393Z,45.45
2023-05-21T20:02:16.617Z,45.01
2023-05-21T20:04:53.912Z,45.67
2023-05-21T20:07:24.358Z,45.47
2023-05-21T20:10:02.255Z,45.29
2023-05-21T20:12:31.536Z,45.30
2023-05-21T20:15:00.770Z,46.29
2023-05-21T20:17:30.462Z,45.69
2023-05-21T20:20:00.753Z,46.46
2023-05-21T20:22:30.091Z,46.31
2023-05-21T20:25:01.353Z,46.96
2023-05-21T20:27:31.168Z,46.89
2023-05-21T20:30:00.542Z,47.70
2023-05-21T20:32:30.677Z,46.81
2023-05-21T20:35:03.241Z,47.67
2023-05-21T20:37:40.746Z,48.14
2023-05-21T20:40:14.724Z,47.92
2023-05-21T20:42:47.861Z,47.09
2023-05-21T20:45:24.010Z,48.38
2023-05-21T20:47:56.205Z,48.02
2023-05-21T20:50:28.247Z,47.93
2023-05-21T20:52:57.904Z,48.17
2023-05-21T20:55:27.059Z,48.37
2023-05-21T20:57:56.023Z,49.00
2023-05-21T21:00:25.268Z,48.67
2023-05-21T21:02:55.389Z,49.58
2023-05-21T21:05:24.858Z,49.76
2023-05-21T21:07:55.753Z,49.88
2023-05-21T21:10:24.982Z,49.33
2023-05-21T21:12:54.088Z,49.63
2023-05-21T21:15:23.071Z,49.87
2023-05-21T21:17:52.524Z,50.28
2023-05-21T21:20:23.031Z,50.71
2023-05-21T21:22:53.855Z,50.15
2023-05-21T21:25:23.009Z,50.49
2023-05-21T21:27:52.101Z,50.99
2023-05-21T21:30:22.719Z,51.20
2023-05-21T21:32:51.929Z,51.27
2023-05-21T21:35:20.994Z,50.49
2023-05-21T21:37:52.759Z,51.22
2023-05-21T21:40:21.943Z,51.31
2023-05-21T21:42:51.177Z,51.13
2023-05-21T21:45:23.867Z,52.02
2023-05-21T21:47:53.527Z,51.28
2023-05-21T21:50:22.373Z,51.88
2023-05-21T21:52:55.344Z,51.63
2023-05-21T21:55:26.009Z,52.53
2023-05-21T21:57:57.270Z,51.90
2023-05-21T22:00:29.618Z,51.68
2023-05-21T22:02:58.902Z,52.51
2023-05-21T22:05:30.344Z,52.15
2023-05-21T22:08:00.502Z,52.36
2023-05-21T22:10:49.091Z,52.67
2023-05-21T22:13:21.520Z,52.83
2023-05-21T22:15:51.442Z,52.32
2023-05-21T22:18:31.816Z,53.28
2023-05-21T22:21:08.854Z,52.83
2023-05-21T22:23:38.435Z,53.27
2023-05-21T22:26:11.503Z,54.01
2023-05-21T22:28:41.632Z,53.53
2023-05-21T22:31:10.713Z,54.14
2023-05-21T22:33:41.798Z,53.54
2023-05-21T22:36:11.967Z,53.95
2023-05-21T22:38:40.984Z,54.08
2023-05-21T22:41:10.286Z,54.11
2023-05-21T22:43:40.320Z,53.93
2023-05-21T22:46:09.182Z,54.35
2023-05-21T22:48:41.334Z,54.62
2023-05-21T22:51:13.701Z,54.04
2023-05-21T22:53:44.051Z,54.52
2023-05-21T22:56:17.558Z,54.83
2023-05-21T22:58:46.657Z,54.60
2023-05-21T23:01:18.070Z,55.52
2023-05-21T23:03:47.152Z,54.68
2023-05-21T23:06:18.066Z,55.26
2023-05-21T23:08:47.269Z,54.98
2023-05-21T23:11:18.780Z,55.79
2023-05-21T23:13:47.972Z,55.69
2023-05-21T23:16:22.430Z,56.04
2023-05-21T23:18:53.373Z,56.07
2023-05-21T23:21:22.514Z,55.79
2023-05-21T23:23:54.060Z,55.99
2023-05-21T23:26:27.591Z,56.29
2023-05-21T23:28:59.438Z,55.82
2023-05-21T23:31:28.535Z,55.96
2023-05-21T23:33:58.071Z,56.69
2023-05-21T23:36:29.147Z,56.64
2023-05-21T23:39:00.500Z,56.96
2023-05-21T23:41:30.556Z,56.81
2023-05-21T23:44:00.455Z,56.77
2023-05-21T23:46:29.504Z,56.72
2023-05-21T23:49:01.827Z,56.74
2023-05-21T23:51:33.474Z,56.80
2023-05-21T23:54:02.755Z,57.36
2023-05-21T23:56:34.294Z,57.23
2023-05-21T23:59:03.533Z,56.90
